createdAt,value
2019-02-21T00:01:38.097Z,100104.03
2019-02-21T00:04:07.820Z,100101.79
2019-02-21T00:06:37.319Z,100101.20
2019-02-21T00:09:08.302Z,100099.03
2019-02-21T00:11:37.728Z,100091.25
2019-02-21T00:14:07.178Z,100092.83
2019-02-21T00:16:36.659Z,100090.26
2019-02-21T00:19:06.225Z,100095.53
2019-02-21T00:21:35.615Z,100095.73
2019-02-21T00:24:05.010Z,100091.48
2019-02-21T00:26:34.531Z,100091.16
2019-02-21T00:29:04.005Z,100085.72
2019-02-21T00:31:33.398Z,100088.50
2019-02-21T00:34:02.828Z,100084.61
2019-02-21T00:36:32.316Z,100081.92
2019-02-21T00:39:01.790Z,100081.59
2019-02-21T00:41:31.215Z,100080.87
2019-02-21T00:44:00.617Z,100076.73
2019-02-21T00:46:30.100Z,100078.70
2019-02-21T00:48:59.619Z,100081.31
2019-02-21T00:51:29.012Z,100081.00
2019-02-21T00:53:58.435Z,100073.02
2019-02-21T00:56:27.960Z,100079.22
2019-02-21T00:58:57.446Z,100068.80
2019-02-21T01:01:27.086Z,100066.88
2019-02-21T01:03:56.610Z,100073.94
2019-02-21T01:06:25.997Z,100072.37
2019-02-21T01:08:55.403Z,100069.87
2019-02-21T01:11:24.949Z,100068.62
2019-02-21T01:13:54.546Z,100070.86
2019-02-21T01:16:23.937Z,100067.83
2019-02-21T01:18:53.388Z,100058.73
2019-02-21T01:21:22.860Z,100063.16
2019-02-21T01:23:52.337Z,100061.37
2019-02-21T01:26:21.779Z,100065.86
2019-02-21T01:28:51.205Z,100061.15
2019-02-21T01:31:20.704Z,100061.90
2019-02-21T01:33:50.232Z,100069.00
2019-02-21T01:36:19.642Z,100062.40
2019-02-21T01:38:49.131Z,100068.14
2019-02-21T01:41:18.661Z,100072.62
2019-02-21T01:43:48.065Z,100072.31
2019-02-21T01:46:17.564Z,100077.85
2019-02-21T01:48:47.121Z,100072.64
2019-02-21T01:51:16.519Z,100075.88
2019-02-21T01:53:45.944Z,100079.52
2019-02-21T01:56:15.471Z,100078.66
2019-02-21T01:58:44.953Z,100083.94
2019-02-21T02:01:14.360Z,100096.70
2019-02-21T02:03:43.907Z,100092.70
2019-02-21T02:06:13.404Z,100091.95
2019-02-21T02:08:42.924Z,100086.57
2019-02-21T02:11:12.343Z,100098.48
2019-02-21T02:13:41.745Z,100095.91
2019-02-21T02:16:11.224Z,100095.12
2019-02-21T02:18:40.676Z,100093.08
2019-02-21T02:21:10.165Z,100104.61
2019-02-21T02:23:39.998Z,100100.89
2019-02-21T02:26:09.538Z,100108.17
2019-02-21T02:28:38.942Z,100111.70
2019-02-21T02:31:21.579Z,100113.04
2019-02-21T02:33:39.759Z,100118.66
2019-02-21T02:36:09.295Z,100117.27
2019-02-21T02:38:38.729Z,100124.41
2019-02-21T02:41:08.366Z,100114.66
2019-02-21T02:43:38.057Z,100120.12
2019-02-21T02:46:07.431Z,100122.05
2019-02-21T02:48:36.876Z,100123.67
2019-02-21T02:51:06.359Z,100124.73
2019-02-21T02:53:35.813Z,100127.09
2019-02-21T02:56:05.475Z,100123.55
2019-02-21T02:58:34.865Z,100126.05
2019-02-21T03:01:04.522Z,100122.16
2019-02-21T03:03:34.018Z,100125.27
2019-02-21T03:06:03.408Z,100132.44
2019-02-21T03:08:32.807Z,100123.55
2019-02-21T03:11:02.404Z,100130.26
2019-02-21T03:13:31.882Z,100135.06
2019-02-21T03:16:01.284Z,100149.37
2019-02-21T03:18:30.814Z,100141.66
2019-02-21T03:21:00.290Z,100145.27
2019-02-21T03:23:29.780Z,100147.11
2019-02-21T03:25:59.383Z,100148.77
2019-02-21T03:28:28.910Z,100159.37
2019-02-21T03:30:58.425Z,100162.28
2019-02-21T03:33:27.969Z,100160.10
2019-02-21T03:35:57.407Z,100167.77
2019-02-21T03:38:26.866Z,100173.09
2019-02-21T03:40:56.290Z,100170.70
2019-02-21T03:43:25.785Z,100166.30
2019-02-21T03:45:55.283Z,100164.27
2019-02-21T03:48:25.010Z,100171.50
2019-02-21T03:50:54.443Z,100166.16
2019-02-21T03:53:23.971Z,100172.97
2019-02-21T03:55:53.958Z,100172.76
2019-02-21T03:58:23.448Z,100176.10
2019-02-21T04:00:52.891Z,100177.45
2019-02-21T04:03:22.318Z,100172.30
2019-02-21T04:05:51.818Z,100178.67
2019-02-21T04:08:21.332Z,100184.03
2019-02-21T04:10:50.762Z,100187.42
2019-02-21T04:13:20.236Z,100188.77
2019-02-21T04:15:49.724Z,100185.52
2019-02-21T04:18:19.169Z,100188.88
2019-02-21T04:20:48.655Z,100201.75
2019-02-21T04:23:18.124Z,100199.27
2019-02-21T04:25:47.762Z,100206.67
2019-02-21T04:28:18.355Z,100211.02
2019-02-21T04:30:47.840Z,100216.97
2019-02-21T04:33:17.353Z,100217.17
2019-02-21T04:35:46.760Z,100215.10
2019-02-21T04:38:16.289Z,100215.56
2019-02-21T04:40:45.830Z,100219.70
2019-02-21T04:43:15.324Z,100221.26
2019-02-21T04:45:44.747Z,100220.22
2019-02-21T04:48:14.423Z,100220.16
2019-02-21T04:50:43.925Z,100216.86
2019-02-21T04:53:13.402Z,100219.19
2019-02-21T04:55:42.881Z,100214.44
2019-02-21T04:58:12.378Z,100218.46
2019-02-21T05:00:41.838Z,100226.48
2019-02-21T05:03:11.299Z,100234.35
2019-02-21T05:05:40.844Z,100235.73
2019-02-21T05:08:10.320Z,100234.88
2019-02-21T05:10:39.754Z,100237.79
2019-02-21T05:13:09.119Z,100250.14
2019-02-21T05:15:38.600Z,100244.49
2019-02-21T05:18:08.108Z,100248.72
2019-02-21T05:20:37.789Z,100251.63
2019-02-21T05:23:07.279Z,100257.23
2019-02-21T05:25:36.805Z,100254.09
2019-02-21T05:28:25.957Z,100256.73
2019-02-21T05:30:58.529Z,100263.07
2019-02-21T05:33:46.839Z,100265.43
2019-02-21T05:36:34.006Z,100274.28
2019-02-21T05:39:20.867Z,100284.11
2019-02-21T05:42:12.231Z,100290.81
2019-02-21T05:44:49.833Z,100301.51
2019-02-21T05:47:50.038Z,100295.00
2019-02-21T05:50:40.760Z,100298.83
2019-02-21T05:53:19.058Z,100306.24
2019-02-21T05:56:01.937Z,100310.88
2019-02-21T05:58:50.286Z,100319.98
2019-02-21T06:01:47.698Z,100321.13
2019-02-21T06:04:25.044Z,100331.20
2019-02-21T06:07:09.919Z,100340.98
2019-02-21T06:09:48.613Z,100339.06
2019-02-21T06:12:33.232Z,100344.67
2019-02-21T06:15:10.025Z,100341.53
2019-02-21T06:18:04.259Z,100349.71
2019-02-21T06:20:52.808Z,100354.80
2019-02-21T06:23:43.818Z,100359.85
2019-02-21T06:26:24.208Z,100357.95
2019-02-21T06:29:03.492Z,100364.94
2019-02-21T06:31:33.210Z,100360.72
2019-02-21T06:34:02.702Z,100369.30
2019-02-21T06:36:32.127Z,100370.16
2019-02-21T06:39:01.682Z,100376.91
2019-02-21T06:41:31.180Z,100370.72
2019-02-21T06:44:02.053Z,100380.91
2019-02-21T06:46:31.493Z,100385.53
2019-02-21T06:49:00.916Z,100389.43
2019-02-21T06:51:30.436Z,100395.73
2019-02-21T06:53:59.974Z,100402.20
2019-02-21T06:56:29.382Z,100404.06
2019-02-21T06:58:58.827Z,100395.93
2019-02-21T07:01:29.570Z,100406.73
2019-02-21T07:04:01.751Z,100406.16
2019-02-21T07:06:32.190Z,100398.05
2019-02-21T07:09:01.906Z,100405.71
2019-02-21T07:11:31.324Z,100406.45
2019-02-21T07:14:00.777Z,100404.23
2019-02-21T07:16:30.514Z,100400.99
2019-02-21T07:19:00.037Z,100408.73
2019-02-21T07:21:29.452Z,100408.09
2019-02-21T07:23:59.062Z,100421.05
2019-02-21T07:26:28.606Z,100412.92
2019-02-21T07:28:58.423Z,100418.26
2019-02-21T07:31:29.249Z,100422.38
2019-02-21T07:34:01.560Z,100409.11
2019-02-21T07:36:30.313Z,100419.00
2019-02-21T07:39:13.832Z,100425.02
2019-02-21T07:41:31.009Z,100421.23
2019-02-21T07:44:11.356Z,100425.01
2019-02-21T07:46:32.458Z,100421.81
2019-02-21T07:49:02.029Z,100424.27
2019-02-21T07:51:31.540Z,100421.47
2019-02-21T07:54:01.071Z,100419.16
2019-02-21T07:56:41.181Z,100419.63
2019-02-21T07:59:01.638Z,100419.89
2019-02-21T08:01:31.263Z,100417.49
2019-02-21T08:04:00.801Z,100410.93
2019-02-21T08:06:30.215Z,100412.58
2019-02-21T08:09:00.020Z,100417.01
2019-02-21T08:11:29.500Z,100415.86
2019-02-21T08:14:01.273Z,100414.73
2019-02-21T08:16:31.024Z,100415.63
2019-02-21T08:19:00.456Z,100418.77
2019-02-21T08:21:30.269Z,100417.64
2019-02-21T08:23:59.821Z,100412.22
2019-02-21T08:26:29.651Z,100426.03
2019-02-21T08:28:59.103Z,100429.11
2019-02-21T08:31:28.624Z,100421.34
2019-02-21T08:34:05.971Z,100424.69
2019-02-21T08:36:35.587Z,100418.42
2019-02-21T08:39:06.223Z,100426.62
2019-02-21T08:41:35.720Z,100414.40
2019-02-21T08:44:05.374Z,100418.62
2019-02-21T08:46:34.762Z,100416.97
2019-02-21T08:49:04.233Z,100417.30
2019-02-21T08:51:33.913Z,100422.91
2019-02-21T08:54:05.548Z,100418.87
2019-02-21T08:56:34.518Z,100418.34
2019-02-21T08:59:04.162Z,100418.12
2019-02-21T09:01:33.668Z,100406.58
2019-02-21T09:04:10.547Z,100400.98
2019-02-21T09:06:34.597Z,100410.06
2019-02-21T09:09:04.701Z,100420.52
2019-02-21T09:11:34.104Z,100423.41
2019-02-21T09:14:03.608Z,100423.61
2019-02-21T09:16:34.355Z,100423.92
2019-02-21T09:19:03.935Z,100414.33
2019-02-21T09:21:33.542Z,100409.97
2019-02-21T09:24:03.001Z,100408.16
2019-02-21T09:26:34.660Z,100399.67
2019-02-21T09:29:03.822Z,100399.59
2019-02-21T09:31:33.213Z,100410.12
2019-02-21T09:34:02.794Z,100413.45
2019-02-21T09:36:32.327Z,100411.44
2019-02-21T09:39:01.841Z,100410.48
2019-02-21T09:41:31.251Z,100398.44
2019-02-21T09:44:00.950Z,100406.40
2019-02-21T09:46:30.362Z,100398.80
2019-02-21T09:48:59.763Z,100395.99
2019-02-21T09:51:29.316Z,100392.30
2019-02-21T09:53:58.795Z,100403.33
2019-02-21T09:56:30.745Z,100395.33
2019-02-21T09:58:59.530Z,100396.34
2019-02-21T10:01:29.021Z,100391.20
2019-02-21T10:03:58.567Z,100391.70
2019-02-21T10:06:28.144Z,100392.87
2019-02-21T10:08:57.563Z,100385.38
2019-02-21T10:11:27.056Z,100381.41
2019-02-21T10:13:56.611Z,100375.58
2019-02-21T10:16:25.994Z,100368.48
2019-02-21T10:18:55.480Z,100357.02
2019-02-21T10:21:25.206Z,100364.43
2019-02-21T10:23:56.619Z,100351.48
2019-02-21T10:26:25.851Z,100355.13
2019-02-21T10:28:55.432Z,100361.90
2019-02-21T10:31:24.902Z,100350.38
2019-02-21T10:33:54.368Z,100352.62
2019-02-21T10:36:23.915Z,100357.45
2019-02-21T10:38:53.376Z,100345.68
2019-02-21T10:41:22.779Z,100345.13
2019-02-21T10:43:52.261Z,100354.44
2019-02-21T10:46:21.754Z,100344.29
2019-02-21T10:48:52.161Z,100329.92
2019-02-21T10:51:21.612Z,100330.48
2019-02-21T10:53:51.032Z,100339.47
2019-02-21T10:56:20.625Z,100333.77
2019-02-21T10:58:50.307Z,100336.87
2019-02-21T11:01:19.723Z,100326.73
2019-02-21T11:03:49.249Z,100322.75
2019-02-21T11:06:18.777Z,100330.78
2019-02-21T11:08:48.179Z,100313.80
2019-02-21T11:11:17.701Z,100303.19
2019-02-21T11:13:47.318Z,100279.53
2019-02-21T11:16:16.707Z,100305.80
2019-02-21T11:18:46.123Z,100294.75
2019-02-21T11:21:15.704Z,100292.62
2019-02-21T11:23:45.181Z,100286.62
2019-02-21T11:26:15.115Z,100288.23
2019-02-21T11:28:47.180Z,100297.62
2019-02-21T11:31:16.121Z,100298.39
2019-02-21T11:33:45.595Z,100286.28
2019-02-21T11:36:15.111Z,100284.47
2019-02-21T11:38:44.646Z,100270.50
2019-02-21T11:41:14.239Z,100267.03
2019-02-21T11:43:43.655Z,100265.80
2019-02-21T11:46:13.235Z,100266.06
2019-02-21T11:48:42.712Z,100266.41
2019-02-21T11:51:12.610Z,100262.37
2019-02-21T11:53:42.026Z,100249.69
2019-02-21T11:56:11.527Z,100252.34
2019-02-21T11:58:41.223Z,100241.72
2019-02-21T12:01:12.839Z,100241.97
2019-02-21T12:03:42.265Z,100243.23
2019-02-21T12:06:12.141Z,100240.57
2019-02-21T12:08:41.608Z,100239.98
2019-02-21T12:11:11.156Z,100242.73
2019-02-21T12:13:40.904Z,100231.94
2019-02-21T12:16:10.609Z,100228.39
2019-02-21T12:18:40.526Z,100235.98
2019-02-21T12:21:09.991Z,100228.66
2019-02-21T12:23:39.721Z,100231.43
2019-02-21T12:26:09.143Z,100220.52
2019-02-21T12:28:38.705Z,100211.05
2019-02-21T12:31:08.252Z,100216.63
2019-02-21T12:33:38.102Z,100216.56
2019-02-21T12:36:07.931Z,100221.38
2019-02-21T12:38:37.377Z,100217.22
2019-02-21T12:41:06.946Z,100218.72
2019-02-21T12:43:36.506Z,100207.66
2019-02-21T12:46:05.960Z,100206.09
2019-02-21T12:48:35.415Z,100199.66
2019-02-21T12:51:05.491Z,100201.75
2019-02-21T12:53:35.090Z,100201.67
2019-02-21T12:56:04.507Z,100201.15
2019-02-21T12:58:33.963Z,100194.94
2019-02-21T13:01:03.473Z,100198.59
2019-02-21T13:03:33.741Z,100194.75
2019-02-21T13:06:04.748Z,100199.98
2019-02-21T13:08:34.411Z,100198.63
2019-02-21T13:11:03.829Z,100198.54
2019-02-21T13:13:37.621Z,100199.91
2019-02-21T13:16:07.118Z,100189.77
2019-02-21T13:18:36.618Z,100188.09
2019-02-21T13:21:06.186Z,100182.04
2019-02-21T13:23:35.599Z,100183.19
2019-02-21T13:26:05.486Z,100182.66
2019-02-21T13:28:35.027Z,100173.50
2019-02-21T13:31:04.426Z,100180.57
2019-02-21T13:33:34.202Z,100182.71
2019-02-21T13:36:05.159Z,100183.45
2019-02-21T13:38:34.633Z,100183.37
2019-02-21T13:41:04.028Z,100182.09
2019-02-21T13:43:33.495Z,100175.22
2019-02-21T13:46:03.043Z,100170.70
2019-02-21T13:48:32.524Z,100174.09
2019-02-21T13:51:02.155Z,100164.63
2019-02-21T13:53:31.536Z,100174.09
2019-02-21T13:56:01.070Z,100171.03
2019-02-21T13:58:30.762Z,100175.55
2019-02-21T14:01:00.159Z,100175.96
2019-02-21T14:03:29.597Z,100174.78
2019-02-21T14:06:03.520Z,100175.35
2019-02-21T14:08:30.351Z,100167.47
2019-02-21T14:11:00.002Z,100169.80
2019-02-21T14:13:29.453Z,100170.89
2019-02-21T14:15:59.145Z,100166.30
2019-02-21T14:18:28.652Z,100168.76
2019-02-21T14:20:58.124Z,100164.25
2019-02-21T14:23:28.164Z,100167.86
2019-02-21T14:25:58.081Z,100157.70
2019-02-21T14:28:27.591Z,100163.20
2019-02-21T14:30:57.107Z,100150.83
2019-02-21T14:33:26.589Z,100158.23
2019-02-21T14:35:56.014Z,100166.37
2019-02-21T14:38:28.138Z,100169.28
2019-02-21T14:40:58.113Z,100161.88
2019-02-21T14:43:27.621Z,100155.05
2019-02-21T14:45:57.039Z,100158.31
2019-02-21T14:48:26.903Z,100154.05
2019-02-21T14:50:56.684Z,100150.39
2019-02-21T14:53:26.150Z,100161.77
2019-02-21T14:55:55.565Z,100157.46
2019-02-21T14:58:25.007Z,100156.22
2019-02-21T15:00:54.489Z,100154.70
2019-02-21T15:03:23.945Z,100160.20
2019-02-21T15:05:53.631Z,100155.79
2019-02-21T15:08:23.144Z,100158.16
2019-02-21T15:10:53.559Z,100154.83
2019-02-21T15:13:25.534Z,100152.41
2019-02-21T15:15:56.624Z,100159.41
2019-02-21T15:18:26.252Z,100157.78
2019-02-21T15:20:55.640Z,100157.63
2019-02-21T15:23:25.080Z,100154.16
2019-02-21T15:25:54.638Z,100155.27
2019-02-21T15:28:24.127Z,100146.09
2019-02-21T15:30:53.536Z,100148.28
2019-02-21T15:33:23.058Z,100142.41
2019-02-21T15:35:52.701Z,100147.81
2019-02-21T15:38:22.293Z,100145.93
2019-02-21T15:40:54.090Z,100149.83
2019-02-21T15:43:23.542Z,100150.30
2019-02-21T15:45:52.944Z,100156.31
2019-02-21T15:48:22.496Z,100160.59
2019-02-21T15:50:51.977Z,100163.02
2019-02-21T15:53:21.481Z,100160.59
2019-02-21T15:55:51.114Z,100167.55
2019-02-21T15:58:20.564Z,100157.97
2019-02-21T16:00:50.148Z,100165.35
2019-02-21T16:03:19.818Z,100161.07
2019-02-21T16:05:49.361Z,100165.66
2019-02-21T16:08:18.793Z,100164.02
2019-02-21T16:10:48.507Z,100165.98
2019-02-21T16:13:18.146Z,100168.17
2019-02-21T16:15:47.714Z,100171.36
2019-02-21T16:18:17.201Z,100170.82
2019-02-21T16:20:46.653Z,100181.06
2019-02-21T16:23:16.079Z,100177.21
2019-02-21T16:25:45.768Z,100177.79
2019-02-21T16:28:15.225Z,100180.06
2019-02-21T16:30:44.633Z,100192.31
2019-02-21T16:33:14.094Z,100188.68
2019-02-21T16:35:43.602Z,100191.55
2019-02-21T16:38:13.043Z,100197.42
2019-02-21T16:40:42.467Z,100200.20
2019-02-21T16:43:11.933Z,100207.42
2019-02-21T16:45:46.279Z,100212.24
2019-02-21T16:48:12.592Z,100213.88
2019-02-21T16:50:41.963Z,100216.66
2019-02-21T16:53:11.417Z,100220.08
2019-02-21T16:55:40.953Z,100216.41
2019-02-21T16:58:10.373Z,100218.41
2019-02-21T17:00:51.318Z,100223.80
2019-02-21T17:03:11.018Z,100220.73
2019-02-21T17:05:40.441Z,100221.96
2019-02-21T17:08:09.892Z,100222.09
2019-02-21T17:10:39.440Z,100226.91
2019-02-21T17:13:08.904Z,100228.45
2019-02-21T17:15:38.294Z,100232.81
2019-02-21T17:18:07.915Z,100225.88
2019-02-21T17:20:37.412Z,100229.83
2019-02-21T17:23:06.855Z,100235.19
2019-02-21T17:25:36.455Z,100230.43
2019-02-21T17:28:05.884Z,100231.15
2019-02-21T17:30:35.388Z,100233.85
2019-02-21T17:33:05.027Z,100234.80
2019-02-21T17:35:34.438Z,100234.36
2019-02-21T17:38:03.888Z,100231.09
2019-02-21T17:40:33.506Z,100226.95
2019-02-21T17:43:02.918Z,100237.06
2019-02-21T17:45:32.396Z,100234.09
2019-02-21T17:48:01.851Z,100233.76
2019-02-21T17:50:31.230Z,100234.95
2019-02-21T17:53:00.682Z,100233.70
2019-02-21T17:55:30.370Z,100235.17
2019-02-21T17:57:59.796Z,100235.02
2019-02-21T18:00:33.429Z,100239.03
2019-02-21T18:03:02.908Z,100239.03
2019-02-21T18:05:32.383Z,100235.23
2019-02-21T18:08:01.853Z,100231.73
2019-02-21T18:10:32.412Z,100231.02
2019-02-21T18:13:01.933Z,100236.01
2019-02-21T18:15:31.399Z,100230.28
2019-02-21T18:18:00.920Z,100230.39
2019-02-21T18:20:30.355Z,100226.19
2019-02-21T18:22:59.778Z,100226.97
2019-02-21T18:25:32.728Z,100226.25
2019-02-21T18:28:02.345Z,100226.03
2019-02-21T18:30:31.931Z,100227.28
2019-02-21T18:33:01.481Z,100229.98
2019-02-21T18:35:31.242Z,100229.23
2019-02-21T18:38:00.674Z,100230.50
2019-02-21T18:40:30.261Z,100240.03
2019-02-21T18:42:59.701Z,100238.25
2019-02-21T18:45:29.102Z,100239.58
2019-02-21T18:47:58.606Z,100243.75
2019-02-21T18:50:37.742Z,100245.19
2019-02-21T18:52:59.238Z,100241.69
2019-02-21T18:55:28.681Z,100246.02
2019-02-21T18:57:58.124Z,100243.28
2019-02-21T19:00:27.831Z,100241.86
2019-02-21T19:02:57.297Z,100242.89
2019-02-21T19:05:35.275Z,100245.25
2019-02-21T19:08:04.692Z,100251.49
2019-02-21T19:10:29.220Z,100248.81
2019-02-21T19:13:00.050Z,100255.53
2019-02-21T19:15:29.604Z,100256.82
2019-02-21T19:17:59.079Z,100259.08
2019-02-21T19:20:28.685Z,100259.80
2019-02-21T19:22:58.118Z,100263.75
2019-02-21T19:25:27.683Z,100268.85
2019-02-21T19:27:57.150Z,100263.30
2019-02-21T19:30:29.921Z,100264.23
2019-02-21T19:32:59.481Z,100266.41
2019-02-21T19:35:28.972Z,100273.66
2019-02-21T19:38:09.547Z,100269.02
2019-02-21T19:40:29.720Z,100263.87
2019-02-21T19:42:59.681Z,100269.02
2019-02-21T19:45:29.255Z,100270.97
2019-02-21T19:47:58.757Z,100267.23
2019-02-21T19:50:28.232Z,100269.62
2019-02-21T19:52:57.737Z,100270.42
2019-02-21T19:55:27.258Z,100273.57
2019-02-21T19:57:56.674Z,100264.15
2019-02-21T20:00:26.845Z,100270.22
2019-02-21T20:02:56.147Z,100265.70
2019-02-21T20:05:25.789Z,100267.70
2019-02-21T20:07:55.347Z,100267.37
2019-02-21T20:10:24.898Z,100260.16
2019-02-21T20:12:54.763Z,100264.15
2019-02-21T20:15:25.213Z,100265.30
2019-02-21T20:17:54.695Z,100263.30
2019-02-21T20:20:24.209Z,100266.20
2019-02-21T20:22:53.622Z,100257.06
2019-02-21T20:25:23.368Z,100260.16
2019-02-21T20:27:52.803Z,100259.08
2019-02-21T20:30:22.278Z,100252.03
2019-02-21T20:32:51.758Z,100254.96
2019-02-21T20:35:21.150Z,100254.96
2019-02-21T20:37:50.628Z,100249.45
2019-02-21T20:40:20.142Z,100245.96
2019-02-21T20:42:49.674Z,100243.97
2019-02-21T20:45:19.174Z,100243.78
2019-02-21T20:47:48.907Z,100235.39
2019-02-21T20:50:18.688Z,100236.41
2019-02-21T20:52:48.117Z,100226.98
2019-02-21T20:55:17.570Z,100226.87
2019-02-21T20:57:47.104Z,100224.97
2019-02-21T21:00:18.354Z,100222.12
2019-02-21T21:02:47.958Z,100220.91
2019-02-21T21:05:17.442Z,100221.74
2019-02-21T21:07:46.949Z,100215.73
2019-02-21T21:10:16.972Z,100214.11
2019-02-21T21:12:46.463Z,100210.37
2019-02-21T21:15:16.071Z,100209.73
2019-02-21T21:17:45.878Z,100204.53
2019-02-21T21:20:16.809Z,100204.47
2019-02-21T21:22:46.426Z,100202.66
2019-02-21T21:25:16.358Z,100203.91
2019-02-21T21:27:45.787Z,100205.81
2019-02-21T21:30:15.555Z,100202.03
2019-02-21T21:32:45.049Z,100196.25
2019-02-21T21:35:14.726Z,100193.28
2019-02-21T21:37:44.350Z,100199.63
2019-02-21T21:40:14.556Z,100198.52
2019-02-21T21:42:44.077Z,100195.09
2019-02-21T21:45:15.746Z,100197.66
2019-02-21T21:47:45.457Z,100199.98
2019-02-21T21:50:16.558Z,100188.93
2019-02-21T21:52:45.983Z,100187.01
2019-02-21T21:55:15.629Z,100185.77
2019-02-21T21:57:45.097Z,100184.68
2019-02-21T22:00:19.721Z,100187.91
2019-02-21T22:02:49.145Z,100186.08
2019-02-21T22:05:18.547Z,100182.70
2019-02-21T22:07:49.410Z,100185.63
2019-02-21T22:10:19.290Z,100184.58
2019-02-21T22:12:48.800Z,100182.59
2019-02-21T22:15:18.581Z,100188.08
2019-02-21T22:17:48.024Z,100190.84
2019-02-21T22:20:18.105Z,100183.91
2019-02-21T22:22:47.571Z,100181.84
2019-02-21T22:25:17.159Z,100181.39
2019-02-21T22:27:46.564Z,100180.82
2019-02-21T22:30:16.832Z,100177.95
2019-02-21T22:32:46.263Z,100175.89
2019-02-21T22:35:15.839Z,100176.61
2019-02-21T22:37:45.354Z,100180.05
2019-02-21T22:40:15.010Z,100177.23
2019-02-21T22:42:44.471Z,100186.21
2019-02-21T22:45:14.317Z,100177.64
2019-02-21T22:47:43.848Z,100176.19
2019-02-21T22:50:14.474Z,100181.31
2019-02-21T22:52:44.169Z,100182.48
2019-02-21T22:55:13.876Z,100174.88
2019-02-21T22:57:43.318Z,100172.34
2019-02-21T23:01:05.217Z,100159.88
2019-02-21T23:03:49.692Z,100166.95
2019-02-21T23:06:52.722Z,100168.02
2019-02-21T23:09:27.447Z,100168.92
2019-02-21T23:11:55.692Z,100165.80
2019-02-21T23:14:25.178Z,100167.20
2019-02-21T23:16:54.554Z,100162.45
2019-02-21T23:19:24.259Z,100156.34
2019-02-21T23:21:53.818Z,100157.72
2019-02-21T23:24:23.257Z,100159.13
2019-02-21T23:26:52.802Z,100161.80
2019-02-21T23:29:22.234Z,100151.20
2019-02-21T23:31:51.706Z,100154.33
2019-02-21T23:34:29.079Z,100145.55
2019-02-21T23:36:58.464Z,100155.24
2019-02-21T23:39:37.526Z,100159.29
2019-02-21T23:41:59.126Z,100161.56
2019-02-21T23:44:28.569Z,100163.53
2019-02-21T23:46:58.046Z,100161.70
2019-02-21T23:49:27.539Z,100164.06
2019-02-21T23:51:56.943Z,100164.25
2019-02-21T23:54:26.380Z,100169.19
2019-02-21T23:56:55.894Z,100163.67
2019-02-21T23:59:25.328Z,100169.82
